createdAt,value
2023-04-20T00:00:24.028Z,26.25
2023-04-20T00:01:00.080Z,24.63
2023-04-20T00:01:35.645Z,20.60
2023-04-20T00:02:08.859Z,19.65
2023-04-20T00:02:44.317Z,27.23
2023-04-20T00:03:22.648Z,36.30
2023-04-20T00:03:57.059Z,34.80
2023-04-20T00:04:32.404Z,27.88
2023-04-20T00:05:06.356Z,24.23
2023-04-20T00:05:40.516Z,18.50
2023-04-20T00:06:16.428Z,36.17
2023-04-20T00:06:51.881Z,21.77
2023-04-20T00:07:30.294Z,19.33
2023-04-20T00:08:06.854Z,29.35
2023-04-20T00:08:39.905Z,23.20
2023-04-20T00:09:14.784Z,24.65
2023-04-20T00:09:50.554Z,26.95
2023-04-20T00:10:24.680Z,23.33
2023-04-20T00:10:58.312Z,29.63
2023-04-20T00:11:32.935Z,37.95
2023-04-20T00:12:08.053Z,26.13
2023-04-20T00:12:43.333Z,26.52
2023-04-20T00:13:18.070Z,26.02
2023-04-20T00:13:54.425Z,23.13
2023-04-20T00:14:28.259Z,26.48
2023-04-20T00:15:02.838Z,23.08
2023-04-20T00:15:38.948Z,36.33
2023-04-20T00:16:12.961Z,25.05
2023-04-20T00:16:50.311Z,22.60
2023-04-20T00:17:23.994Z,21.92
2023-04-20T00:17:58.983Z,23.30
2023-04-20T00:18:33.820Z,21.88
2023-04-20T00:19:08.206Z,30.92
2023-04-20T00:19:42.995Z,21.80
2023-04-20T00:20:19.365Z,26.63
2023-04-20T00:20:53.782Z,23.23
2023-04-20T00:21:28.609Z,26.35
2023-04-20T00:22:03.791Z,18.83
2023-04-20T00:22:39.164Z,24.15
2023-04-20T00:23:12.922Z,32.88
2023-04-20T00:23:48.727Z,20.48
2023-04-20T00:24:22.819Z,22.15
2023-04-20T00:24:56.978Z,22.70
2023-04-20T00:25:32.470Z,29.13
2023-04-20T00:26:06.409Z,27.92
2023-04-20T00:26:39.719Z,32.63
2023-04-20T00:27:15.463Z,18.02
2023-04-20T00:27:49.245Z,26.45
2023-04-20T00:28:26.188Z,24.38
2023-04-20T00:29:00.412Z,26.67
2023-04-20T00:29:35.749Z,21.63
2023-04-20T00:30:13.366Z,26.75
2023-04-20T00:30:46.718Z,19.17
2023-04-20T00:31:21.710Z,18.23
2023-04-20T00:31:55.556Z,26.38
2023-04-20T00:32:31.061Z,21.40
2023-04-20T00:33:07.181Z,24.42
2023-04-20T00:33:41.230Z,27.77
2023-04-20T00:34:14.878Z,17.13
2023-04-20T00:34:48.402Z,29.13
2023-04-20T00:35:26.261Z,19.95
2023-04-20T00:36:01.081Z,23.48
2023-04-20T00:36:35.993Z,27.23
2023-04-20T00:37:11.281Z,20.48
2023-04-20T00:37:46.348Z,25.95
2023-04-20T00:38:22.563Z,23.95
2023-04-20T00:38:56.191Z,18.83
2023-04-20T00:39:30.511Z,18.63
2023-04-20T00:40:04.985Z,15.25
2023-04-20T00:40:39.713Z,21.90
2023-04-20T00:41:13.733Z,30.63
2023-04-20T00:41:48.807Z,34.70
2023-04-20T00:42:22.415Z,27.30
2023-04-20T00:42:59.787Z,27.33
2023-04-20T00:43:33.936Z,14.10
2023-04-20T00:44:08.382Z,16.20
2023-04-20T00:44:42.280Z,19.05
2023-04-20T00:45:15.466Z,20.38
2023-04-20T00:45:52.191Z,32.38
2023-04-20T00:46:26.579Z,19.25
2023-04-20T00:47:00.740Z,18.13
2023-04-20T00:47:35.436Z,22.95
2023-04-20T00:48:09.462Z,27.42
2023-04-20T00:48:43.746Z,21.27
2023-04-20T00:49:19.259Z,24.40
2023-04-20T00:49:55.645Z,20.33
2023-04-20T00:50:29.864Z,20.27
2023-04-20T00:51:04.606Z,20.73
2023-04-20T00:51:38.811Z,17.58
2023-04-20T00:52:13.916Z,18.38
2023-04-20T00:52:49.522Z,21.00
2023-04-20T00:53:24.772Z,15.82
2023-04-20T00:53:58.775Z,23.73
2023-04-20T00:54:33.575Z,13.05
2023-04-20T00:55:11.664Z,19.25
2023-04-20T00:55:48.824Z,25.17
2023-04-20T00:56:22.793Z,20.13
2023-04-20T00:56:58.676Z,23.23
2023-04-20T00:57:36.154Z,17.40
2023-04-20T00:58:09.940Z,25.08
2023-04-20T00:58:45.457Z,21.70
2023-04-20T00:59:19.501Z,19.95
2023-04-20T00:59:53.819Z,15.20
2023-04-20T01:00:30.055Z,21.52
2023-04-20T01:01:02.905Z,21.92
2023-04-20T01:01:36.517Z,21.17
2023-04-20T01:02:12.155Z,22.67
2023-04-20T01:02:48.482Z,23.38
2023-04-20T01:03:23.040Z,32.08
2023-04-20T01:03:57.809Z,19.77
2023-04-20T01:04:32.059Z,23.67
2023-04-20T01:05:06.620Z,17.25
2023-04-20T01:05:41.401Z,23.63
2023-04-20T01:06:16.229Z,19.27
2023-04-20T01:06:50.003Z,17.95
2023-04-20T01:07:27.301Z,23.27
2023-04-20T01:08:03.652Z,21.90
2023-04-20T01:08:38.076Z,17.45
2023-04-20T01:09:13.790Z,16.70
2023-04-20T01:09:47.585Z,19.30
2023-04-20T01:10:21.823Z,37.13
2023-04-20T01:10:56.820Z,18.90
2023-04-20T01:11:29.856Z,23.38
2023-04-20T01:12:03.615Z,23.23
2023-04-20T01:14:06.673Z,17.92
2023-04-20T01:14:40.342Z,25.20
2023-04-20T01:15:14.182Z,23.17
2023-04-20T01:15:49.499Z,23.38
2023-04-20T01:16:25.733Z,30.38
2023-04-20T01:16:59.815Z,21.77
2023-04-20T01:17:33.913Z,28.13
2023-04-20T01:18:10.283Z,25.25
2023-04-20T01:18:45.721Z,22.38
2023-04-20T01:19:21.240Z,23.92
2023-04-20T01:19:55.950Z,25.27
2023-04-20T01:20:31.003Z,23.58
2023-04-20T01:21:06.120Z,18.08
2023-04-20T01:21:39.208Z,29.20
2023-04-20T01:22:17.506Z,17.73
2023-04-20T01:22:55.127Z,25.83
2023-04-20T01:23:28.840Z,19.45
2023-04-20T01:24:03.129Z,24.58
2023-04-20T01:24:40.717Z,22.52
2023-04-20T01:25:14.237Z,19.10
2023-04-20T01:25:48.609Z,23.17
2023-04-20T01:26:24.432Z,22.23
2023-04-20T01:26:58.668Z,24.15
2023-04-20T01:27:32.863Z,19.38
2023-04-20T01:28:09.726Z,19.58
2023-04-20T01:28:43.453Z,24.98
2023-04-20T01:29:17.839Z,24.17
2023-04-20T01:29:52.957Z,19.60
2023-04-20T01:30:26.729Z,26.50
2023-04-20T01:31:01.002Z,16.13
2023-04-20T01:31:36.413Z,19.77
2023-04-20T01:32:10.025Z,29.42
2023-04-20T01:32:44.489Z,21.45
2023-04-20T01:33:19.553Z,21.77
2023-04-20T01:33:55.460Z,18.50
2023-04-20T01:34:30.067Z,21.48
2023-04-20T01:35:06.758Z,20.20
2023-04-20T01:35:44.040Z,18.92
2023-04-20T01:36:19.263Z,13.98
2023-04-20T01:36:52.108Z,21.33
2023-04-20T01:37:27.744Z,23.35
2023-04-20T01:38:03.229Z,25.70
2023-04-20T01:38:37.746Z,21.30
2023-04-20T01:39:11.447Z,16.98
2023-04-20T01:39:46.939Z,17.67
2023-04-20T01:40:20.917Z,27.02
2023-04-20T01:40:54.911Z,20.92
2023-04-20T01:41:29.473Z,28.08
2023-04-20T01:42:03.888Z,31.77
2023-04-20T01:42:37.281Z,20.08
2023-04-20T01:43:13.226Z,21.58
2023-04-20T01:43:47.237Z,19.33
2023-04-20T01:44:20.987Z,16.67
2023-04-20T01:44:55.826Z,21.30
2023-04-20T01:45:29.768Z,19.90
2023-04-20T01:46:04.154Z,27.48
2023-04-20T01:46:40.940Z,26.35
2023-04-20T01:47:14.596Z,35.63
2023-04-20T01:47:49.950Z,33.17
2023-04-20T01:48:25.597Z,26.15
2023-04-20T01:49:00.206Z,22.20
2023-04-20T01:49:34.186Z,31.02
2023-04-20T01:50:09.480Z,28.13
2023-04-20T01:50:42.975Z,23.83
2023-04-20T01:51:20.245Z,28.17
2023-04-20T01:51:53.832Z,27.60
2023-04-20T01:52:32.135Z,35.78
2023-04-20T01:53:06.342Z,30.67
2023-04-20T01:53:40.839Z,25.83
2023-04-20T01:54:15.558Z,24.65
2023-04-20T01:54:49.692Z,30.77
2023-04-20T01:55:23.640Z,31.25
2023-04-20T01:56:02.169Z,27.10
2023-04-20T01:56:35.392Z,28.10
2023-04-20T01:57:09.612Z,34.70
2023-04-20T01:57:45.326Z,38.00
2023-04-20T01:58:19.571Z,31.40
2023-04-20T01:58:54.696Z,36.00
2023-04-20T01:59:29.455Z,24.00
2023-04-20T02:00:04.326Z,27.13
2023-04-20T02:00:51.521Z,32.17
2023-04-20T02:01:26.502Z,23.40
2023-04-20T02:02:00.161Z,30.17
2023-04-20T02:02:36.009Z,27.65
2023-04-20T02:03:11.033Z,35.15
2023-04-20T02:03:44.497Z,33.95
2023-04-20T02:04:21.777Z,19.90
2023-04-20T02:04:56.009Z,30.27
2023-04-20T02:05:30.112Z,22.60
2023-04-20T02:06:05.809Z,28.77
2023-04-20T02:06:39.170Z,29.58
2023-04-20T02:07:16.191Z,29.40
2023-04-20T02:07:53.243Z,31.98
2023-04-20T02:08:27.986Z,21.65
2023-04-20T02:09:01.115Z,43.47
2023-04-20T02:09:36.688Z,20.20
2023-04-20T02:10:11.153Z,27.90
2023-04-20T02:10:45.321Z,29.05
2023-04-20T02:11:19.999Z,21.67
2023-04-20T02:11:53.407Z,28.63
2023-04-20T02:12:26.489Z,39.97
2023-04-20T02:13:01.086Z,23.40
2023-04-20T02:13:35.864Z,25.10
2023-04-20T02:14:09.428Z,23.02
2023-04-20T02:14:44.639Z,27.85
2023-04-20T02:15:20.354Z,24.70
2023-04-20T02:15:54.233Z,32.03
2023-04-20T02:16:29.454Z,29.67
2023-04-20T02:17:04.696Z,28.45
2023-04-20T02:17:40.877Z,23.10
2023-04-20T02:18:15.625Z,40.42
2023-04-20T02:18:50.177Z,22.83
2023-04-20T02:19:24.208Z,34.28
2023-04-20T02:19:57.663Z,30.17
2023-04-20T02:20:32.038Z,34.05
2023-04-20T02:21:07.432Z,29.63
2023-04-20T02:21:41.439Z,35.38
2023-04-20T02:22:15.655Z,34.50
2023-04-20T02:22:50.113Z,39.42
2023-04-20T02:23:26.217Z,29.92
2023-04-20T02:24:03.899Z,30.33
2023-04-20T02:24:37.754Z,24.35
2023-04-20T02:25:12.168Z,29.60
2023-04-20T02:25:47.101Z,35.55
2023-04-20T02:26:20.877Z,24.33
2023-04-20T02:26:54.508Z,29.52
2023-04-20T02:27:28.677Z,31.42
2023-04-20T02:28:03.023Z,27.02
2023-04-20T02:28:37.352Z,32.17
2023-04-20T02:29:13.025Z,29.15
2023-04-20T02:29:46.957Z,29.80
2023-04-20T02:30:22.182Z,24.92
2023-04-20T02:30:57.010Z,27.65
2023-04-20T02:31:31.134Z,24.90
2023-04-20T02:32:06.745Z,30.58
2023-04-20T02:32:41.257Z,41.10
2023-04-20T02:33:16.368Z,32.58
2023-04-20T02:33:51.118Z,29.67
2023-04-20T02:34:26.784Z,28.08
2023-04-20T02:35:04.476Z,25.52
2023-04-20T02:35:39.380Z,26.92
2023-04-20T02:36:12.861Z,19.92
2023-04-20T02:36:48.966Z,26.15
2023-04-20T02:37:23.011Z,23.65
2023-04-20T02:37:57.801Z,29.40
2023-04-20T02:38:33.107Z,24.77
2023-04-20T02:39:08.569Z,24.75
2023-04-20T02:39:43.307Z,30.25
2023-04-20T02:40:18.551Z,33.97
2023-04-20T02:40:53.175Z,36.45
2023-04-20T02:41:27.443Z,27.98
2023-04-20T02:42:02.972Z,36.17
2023-04-20T02:42:37.984Z,45.65
2023-04-20T02:43:14.083Z,31.63
2023-04-20T02:43:49.512Z,35.97
2023-04-20T02:44:23.461Z,35.58
2023-04-20T02:44:57.932Z,25.00
2023-04-20T02:45:32.106Z,30.45
2023-04-20T02:46:08.351Z,27.38
2023-04-20T02:46:43.060Z,36.40
2023-04-20T02:47:17.465Z,28.80
2023-04-20T02:47:54.116Z,33.42
2023-04-20T02:48:28.958Z,25.48
2023-04-20T02:49:04.179Z,31.33
2023-04-20T02:49:44.977Z,34.53
2023-04-20T02:50:19.393Z,27.42
2023-04-20T02:51:10.563Z,26.00
2023-04-20T02:51:48.485Z,31.23
2023-04-20T02:52:21.885Z,26.25
2023-04-20T02:52:56.605Z,27.58
2023-04-20T02:53:30.739Z,26.73
2023-04-20T02:54:22.643Z,30.25
2023-04-20T02:54:57.221Z,24.20
2023-04-20T02:55:31.360Z,32.63
2023-04-20T02:56:11.683Z,27.38
2023-04-20T02:56:51.301Z,26.27
2023-04-20T02:57:26.412Z,28.10
2023-04-20T02:58:02.896Z,18.95
2023-04-20T02:58:57.349Z,28.75
2023-04-20T02:59:31.412Z,22.42
2023-04-20T03:00:13.516Z,28.67
2023-04-20T03:01:04.927Z,20.33
2023-04-20T03:01:44.245Z,23.67
2023-04-20T03:02:26.336Z,25.95
2023-04-20T03:03:01.899Z,22.80
2023-04-20T03:03:39.105Z,26.20
2023-04-20T03:04:19.579Z,25.27
2023-04-20T03:05:07.975Z,26.23
2023-04-20T03:05:49.369Z,19.30
2023-04-20T03:06:24.390Z,19.17
2023-04-20T03:07:01.503Z,25.35
2023-04-20T03:07:40.336Z,25.23
2023-04-20T03:08:15.905Z,26.75
2023-04-20T03:08:51.773Z,22.30
2023-04-20T03:09:50.343Z,21.35
2023-04-20T03:10:54.379Z,32.88
2023-04-20T03:11:28.477Z,19.83
2023-04-20T03:12:05.366Z,24.60
2023-04-20T03:13:09.937Z,22.27
2023-04-20T03:13:58.891Z,22.42
2023-04-20T03:14:33.508Z,19.77
2023-04-20T03:15:08.175Z,22.33
2023-04-20T03:16:03.148Z,21.77
2023-04-20T03:16:41.755Z,20.23
2023-04-20T03:17:15.673Z,26.60
2023-04-20T03:17:49.712Z,16.00
2023-04-20T03:18:25.149Z,23.55
2023-04-20T03:18:59.536Z,27.13
2023-04-20T03:19:34.413Z,33.55
2023-04-20T03:20:10.187Z,30.33
2023-04-20T03:20:44.185Z,24.30
2023-04-20T03:21:20.003Z,25.33
2023-04-20T03:21:53.608Z,16.70
2023-04-20T03:22:27.798Z,23.50
2023-04-20T03:23:06.158Z,20.38
2023-04-20T03:23:39.488Z,15.18
2023-04-20T03:24:14.669Z,22.00
2023-04-20T03:24:51.984Z,26.45
2023-04-20T03:25:52.023Z,22.33
2023-04-20T03:26:42.361Z,23.80
2023-04-20T03:27:29.539Z,20.00
2023-04-20T03:28:14.184Z,19.83
2023-04-20T03:28:49.215Z,21.17
2023-04-20T03:29:27.327Z,19.52
2023-04-20T03:30:01.974Z,19.52
2023-04-20T03:30:38.063Z,21.63
2023-04-20T03:31:20.572Z,18.38
2023-04-20T03:31:56.392Z,18.83
2023-04-20T03:32:32.663Z,20.80
2023-04-20T03:33:07.316Z,22.98
2023-04-20T03:33:43.262Z,18.40
2023-04-20T03:34:17.657Z,21.05
2023-04-20T03:34:52.305Z,13.88
2023-04-20T03:35:28.378Z,22.30
2023-04-20T03:36:02.242Z,20.38
2023-04-20T03:36:37.712Z,23.00
2023-04-20T03:37:10.903Z,26.42
2023-04-20T03:37:43.840Z,19.15
2023-04-20T03:38:18.948Z,22.25
2023-04-20T03:38:55.710Z,25.90
2023-04-20T03:39:28.845Z,20.80
2023-04-20T03:40:07.413Z,21.45
2023-04-20T03:40:40.760Z,19.35
2023-04-20T03:41:15.224Z,18.48
2023-04-20T03:41:50.690Z,17.67
2023-04-20T03:42:25.411Z,18.98
2023-04-20T03:42:59.047Z,20.92
2023-04-20T03:43:35.004Z,17.35
2023-04-20T03:44:10.713Z,21.55
2023-04-20T03:44:44.132Z,15.45
2023-04-20T03:45:21.003Z,20.30
2023-04-20T03:45:56.641Z,18.85
2023-04-20T03:46:31.562Z,20.65
2023-04-20T03:47:06.005Z,23.40
2023-04-20T03:47:41.342Z,15.00
2023-04-20T03:48:16.965Z,25.02
2023-04-20T03:48:50.798Z,17.08
2023-04-20T03:49:25.919Z,16.98
2023-04-20T03:50:00.459Z,18.25
2023-04-20T03:50:34.289Z,16.17
2023-04-20T03:51:08.056Z,21.75
2023-04-20T03:51:43.347Z,21.70
2023-04-20T03:52:16.737Z,22.67
2023-04-20T03:52:53.665Z,22.63
2023-04-20T03:53:29.691Z,28.85
2023-04-20T03:54:04.439Z,22.23
2023-04-20T03:54:39.438Z,22.70
2023-04-20T03:55:16.425Z,17.75
2023-04-20T03:55:55.979Z,21.98
2023-04-20T03:56:30.922Z,15.60
2023-04-20T03:57:05.615Z,18.58
2023-04-20T03:57:39.804Z,22.33
2023-04-20T03:58:16.352Z,22.42
2023-04-20T03:59:01.556Z,19.00
2023-04-20T03:59:35.413Z,22.50
2023-04-20T04:00:12.579Z,19.92
2023-04-20T04:00:53.024Z,20.25
2023-04-20T04:01:27.127Z,18.58
2023-04-20T04:02:03.260Z,18.98
2023-04-20T04:02:38.632Z,17.42
2023-04-20T04:03:14.063Z,105.28
2023-04-20T04:03:49.356Z,34.30
2023-04-20T04:04:24.388Z,50.47
2023-04-20T04:04:59.537Z,19.27
2023-04-20T04:05:34.395Z,14.15
2023-04-20T04:06:09.465Z,17.20
2023-04-20T04:06:45.012Z,15.10
2023-04-20T04:07:18.417Z,24.13
2023-04-20T04:07:52.532Z,16.05
2023-04-20T04:08:28.244Z,19.27
2023-04-20T04:09:04.123Z,22.00
2023-04-20T04:09:38.872Z,17.90
2023-04-20T04:10:19.171Z,19.35
2023-04-20T04:10:56.529Z,16.80
2023-04-20T04:11:30.349Z,14.50
2023-04-20T04:12:07.708Z,18.92
2023-04-20T04:12:41.512Z,21.02
2023-04-20T04:13:15.465Z,20.55
2023-04-20T04:13:49.667Z,15.82
2023-04-20T04:14:24.313Z,18.42
2023-04-20T04:14:58.014Z,16.42
2023-04-20T04:15:34.873Z,17.52
2023-04-20T04:16:17.032Z,16.35
2023-04-20T04:16:51.771Z,20.13
2023-04-20T04:17:28.220Z,22.83
2023-04-20T04:18:03.201Z,20.27
2023-04-20T04:18:40.308Z,17.02
2023-04-20T04:19:16.819Z,20.10
2023-04-20T04:19:51.212Z,21.55
2023-04-20T04:20:25.841Z,21.17
2023-04-20T04:21:00.747Z,20.33
2023-04-20T04:21:34.556Z,25.33
2023-04-20T04:22:12.382Z,18.50
2023-04-20T04:22:57.581Z,14.18
2023-04-20T04:23:43.978Z,16.90
2023-04-20T04:24:23.682Z,17.20
2023-04-20T04:25:05.112Z,19.50
2023-04-20T04:25:40.597Z,16.88
2023-04-20T04:26:16.209Z,16.23
2023-04-20T04:26:51.531Z,18.50
2023-04-20T04:27:25.456Z,17.48
2023-04-20T04:28:03.213Z,17.17
2023-04-20T04:28:39.044Z,20.38
2023-04-20T04:29:20.788Z,24.90
2023-04-20T04:29:56.217Z,26.08
2023-04-20T04:30:30.609Z,18.58
2023-04-20T04:31:07.847Z,14.80
2023-04-20T04:31:42.194Z,13.60
2023-04-20T04:32:24.982Z,16.02
2023-04-20T04:33:00.619Z,14.95
2023-04-20T04:33:35.373Z,15.27
2023-04-20T04:34:11.867Z,15.48
2023-04-20T04:34:51.390Z,20.10
2023-04-20T04:35:27.353Z,16.65
2023-04-20T04:36:04.942Z,18.27
2023-04-20T04:36:40.741Z,13.70
2023-04-20T04:37:18.246Z,18.45
2023-04-20T04:37:56.979Z,16.40
2023-04-20T04:38:32.320Z,14.63
2023-04-20T04:39:06.452Z,19.15
2023-04-20T04:39:41.532Z,22.40
2023-04-20T04:40:23.228Z,23.67
2023-04-20T04:41:03.186Z,17.60
2023-04-20T04:41:38.111Z,14.10
2023-04-20T04:42:22.383Z,20.98
2023-04-20T04:42:57.105Z,17.23
2023-04-20T04:43:32.001Z,14.65
2023-04-20T04:44:22.954Z,18.70
2023-04-20T04:44:58.630Z,12.05
2023-04-20T04:45:38.534Z,16.15
2023-04-20T04:46:13.449Z,17.55
2023-04-20T04:46:49.020Z,18.90
2023-04-20T04:47:24.245Z,12.77
2023-04-20T04:48:00.350Z,14.70
2023-04-20T04:48:36.171Z,15.05
2023-04-20T04:49:12.192Z,14.25
2023-04-20T04:49:48.876Z,12.75
2023-04-20T04:50:23.113Z,14.98
2023-04-20T04:50:59.289Z,20.77
2023-04-20T04:51:33.384Z,15.00
2023-04-20T04:52:07.937Z,20.30
2023-04-20T04:52:41.683Z,15.88
2023-04-20T04:53:16.649Z,21.23
2023-04-20T04:53:53.153Z,15.32
2023-04-20T04:54:27.637Z,17.58
2023-04-20T04:55:03.512Z,20.30
2023-04-20T04:55:37.055Z,15.80
2023-04-20T04:56:13.437Z,18.70
2023-04-20T04:56:48.424Z,13.63
2023-04-20T04:57:27.024Z,18.92
2023-04-20T04:58:02.372Z,12.80
2023-04-20T04:58:37.456Z,19.83
2023-04-20T04:59:11.569Z,16.67
2023-04-20T04:59:45.603Z,14.88
2023-04-20T05:00:23.246Z,18.90
2023-04-20T05:00:57.211Z,16.75
2023-04-20T05:01:30.061Z,16.00
2023-04-20T05:02:05.663Z,20.95
2023-04-20T05:02:39.757Z,16.60
2023-04-20T05:03:15.212Z,15.90
2023-04-20T05:03:49.659Z,17.45
2023-04-20T05:04:24.712Z,15.18
2023-04-20T05:04:59.772Z,18.75
2023-04-20T05:05:33.546Z,17.85
2023-04-20T05:06:09.193Z,22.10
2023-04-20T05:06:46.210Z,13.13
2023-04-20T05:07:19.535Z,13.43
2023-04-20T05:07:53.646Z,22.00
2023-04-20T05:08:28.369Z,19.48
2023-04-20T05:09:02.644Z,12.27
2023-04-20T05:09:36.378Z,11.88
2023-04-20T05:10:14.048Z,15.85
2023-04-20T05:10:48.750Z,14.30
2023-04-20T05:11:24.633Z,14.10
2023-04-20T05:11:59.552Z,18.55
2023-04-20T05:12:33.391Z,15.30
2023-04-20T05:13:07.758Z,17.70
2023-04-20T05:13:42.842Z,13.65
2023-04-20T05:14:17.288Z,17.73
2023-04-20T05:14:51.809Z,14.88
2023-04-20T05:15:27.578Z,15.95
2023-04-20T05:16:01.365Z,13.82
2023-04-20T05:16:33.968Z,18.70
2023-04-20T05:17:09.166Z,16.75
2023-04-20T05:17:42.495Z,18.38
2023-04-20T05:18:16.647Z,21.00
2023-04-20T05:18:56.217Z,22.73
2023-04-20T05:19:29.754Z,15.57
2023-04-20T05:20:07.004Z,16.50
2023-04-20T05:20:42.614Z,19.05
2023-04-20T05:21:17.204Z,12.55
2023-04-20T05:21:54.275Z,15.15
2023-04-20T05:22:28.849Z,17.30
2023-04-20T05:23:02.888Z,17.15
2023-04-20T05:23:37.640Z,17.60
2023-04-20T05:24:11.899Z,15.45
2023-04-20T05:24:47.461Z,15.38
2023-04-20T05:25:21.897Z,13.32
2023-04-20T05:25:57.463Z,19.67
2023-04-20T05:26:32.678Z,19.80
2023-04-20T05:27:07.033Z,14.57
2023-04-20T05:27:41.950Z,13.48
2023-04-20T05:28:16.376Z,18.92
2023-04-20T05:28:52.144Z,19.38
2023-04-20T05:29:26.950Z,17.13
2023-04-20T05:30:13.062Z,17.02
2023-04-20T05:30:52.254Z,15.57
2023-04-20T05:31:27.053Z,18.25
2023-04-20T05:32:00.802Z,15.13
2023-04-20T05:32:36.144Z,18.63
2023-04-20T05:33:10.451Z,15.30
2023-04-20T05:33:46.668Z,22.58
2023-04-20T05:34:20.769Z,14.85
2023-04-20T05:34:55.893Z,15.27
2023-04-20T05:35:30.844Z,14.55
2023-04-20T05:36:09.584Z,19.00
2023-04-20T05:36:43.860Z,18.33
2023-04-20T05:37:19.786Z,20.15
2023-04-20T05:37:53.659Z,16.25
2023-04-20T05:38:28.845Z,15.55
2023-04-20T05:39:04.082Z,13.95
2023-04-20T05:39:38.650Z,19.77
2023-04-20T05:40:13.574Z,15.93
2023-04-20T05:40:50.353Z,25.20
2023-04-20T05:41:27.456Z,16.88
2023-04-20T05:42:05.366Z,13.48
2023-04-20T05:42:40.517Z,17.02
2023-04-20T05:43:14.015Z,26.88
2023-04-20T05:43:49.045Z,19.58
2023-04-20T05:44:24.020Z,16.50
2023-04-20T05:44:56.940Z,15.18
2023-04-20T05:45:33.212Z,25.83
2023-04-20T05:46:06.975Z,22.15
2023-04-20T05:46:40.855Z,13.60
2023-04-20T05:47:16.240Z,15.45
2023-04-20T05:47:56.911Z,16.85
2023-04-20T05:48:31.380Z,13.60
2023-04-20T05:49:05.132Z,15.32
2023-04-20T05:49:41.211Z,19.92
2023-04-20T05:50:16.465Z,15.40
2023-04-20T05:50:51.650Z,12.80
2023-04-20T05:51:29.748Z,23.08
2023-04-20T05:52:04.005Z,18.67
2023-04-20T05:52:37.160Z,20.40
2023-04-20T05:53:11.955Z,19.85
2023-04-20T05:53:45.361Z,14.43
2023-04-20T05:54:20.659Z,21.27
2023-04-20T05:54:53.782Z,18.48
2023-04-20T05:55:27.738Z,23.13
2023-04-20T05:56:03.261Z,42.47
2023-04-20T05:56:37.884Z,45.38
2023-04-20T05:57:13.430Z,17.02
2023-04-20T05:57:49.115Z,18.92
2023-04-20T05:58:24.863Z,18.13
2023-04-20T05:59:01.483Z,22.35
2023-04-20T05:59:38.595Z,14.88
2023-04-20T06:00:18.733Z,14.75
2023-04-20T06:00:55.274Z,14.70
2023-04-20T06:01:29.302Z,14.98
2023-04-20T06:02:04.555Z,18.95
2023-04-20T06:02:38.405Z,19.70
2023-04-20T06:03:12.450Z,17.35
2023-04-20T06:03:50.539Z,17.05
2023-04-20T06:04:25.984Z,20.13
2023-04-20T06:05:01.954Z,16.83
2023-04-20T06:05:36.544Z,17.67
2023-04-20T06:06:10.760Z,24.10
2023-04-20T06:06:45.137Z,15.43
2023-04-20T06:07:19.436Z,17.20
2023-04-20T06:07:53.810Z,14.05
2023-04-20T06:08:28.996Z,21.95
2023-04-20T06:09:04.688Z,12.40
2023-04-20T06:09:39.321Z,15.30
2023-04-20T06:10:13.943Z,19.92
2023-04-20T06:10:49.145Z,12.23
2023-04-20T06:11:23.828Z,25.33
2023-04-20T06:12:00.942Z,21.98
2023-04-20T06:12:35.363Z,15.48
2023-04-20T06:13:08.994Z,21.17
2023-04-20T06:13:44.699Z,22.92
2023-04-20T06:14:19.274Z,16.42
2023-04-20T06:14:56.679Z,18.05
2023-04-20T06:15:32.872Z,25.48
2023-04-20T06:16:10.189Z,14.15
2023-04-20T06:16:44.771Z,12.77
2023-04-20T06:17:20.622Z,22.67
2023-04-20T06:17:55.491Z,17.13
2023-04-20T06:18:30.236Z,16.15
2023-04-20T06:19:05.214Z,13.32
2023-04-20T06:19:38.602Z,13.43
2023-04-20T06:20:13.124Z,12.90
2023-04-20T06:20:47.352Z,14.07
2023-04-20T06:21:20.882Z,11.30
2023-04-20T06:21:55.579Z,17.60
2023-04-20T06:22:29.805Z,15.02
2023-04-20T06:23:05.842Z,12.80
2023-04-20T06:23:39.925Z,18.52
2023-04-20T06:24:13.951Z,21.88
2023-04-20T06:24:49.825Z,14.85
2023-04-20T06:25:26.105Z,13.25
2023-04-20T06:26:01.158Z,12.60
2023-04-20T06:26:34.380Z,20.90
2023-04-20T06:27:08.021Z,12.27
2023-04-20T06:27:44.597Z,11.32
2023-04-20T06:28:17.496Z,13.43
2023-04-20T06:28:56.575Z,17.10
2023-04-20T06:29:30.738Z,13.73
2023-04-20T06:30:06.974Z,14.32
2023-04-20T06:30:41.847Z,14.10
2023-04-20T06:31:15.369Z,17.83
2023-04-20T06:31:51.292Z,14.75
2023-04-20T06:32:28.481Z,14.73
2023-04-20T06:33:03.770Z,12.05
2023-04-20T06:33:37.838Z,12.52
2023-04-20T06:34:12.999Z,17.77
2023-04-20T06:34:47.992Z,19.70
2023-04-20T06:35:22.744Z,15.48
2023-04-20T06:35:57.686Z,14.30
2023-04-20T06:36:32.451Z,11.35
2023-04-20T06:37:09.392Z,10.95
2023-04-20T06:37:43.734Z,13.07
2023-04-20T06:38:18.300Z,18.00
2023-04-20T06:38:56.381Z,15.15
2023-04-20T06:39:31.409Z,11.07
2023-04-20T06:40:08.444Z,10.93
2023-04-20T06:40:44.567Z,16.85
2023-04-20T06:41:20.022Z,17.13
2023-04-20T06:41:57.460Z,17.08
2023-04-20T06:42:34.018Z,14.27
2023-04-20T06:43:14.566Z,13.27
2023-04-20T06:43:49.509Z,9.88
2023-04-20T06:44:23.099Z,15.18
2023-04-20T06:44:58.649Z,7.95
2023-04-20T06:45:34.225Z,7.85
2023-04-20T06:46:09.567Z,12.35
2023-04-20T06:46:43.233Z,11.70
2023-04-20T06:47:17.252Z,18.65
2023-04-20T06:47:52.624Z,10.88
2023-04-20T06:48:32.301Z,9.60
2023-04-20T06:49:07.906Z,7.55
2023-04-20T06:49:42.314Z,8.18
2023-04-20T06:50:16.535Z,8.90
2023-04-20T06:50:51.721Z,8.05
2023-04-20T06:51:27.571Z,14.85
2023-04-20T06:52:03.053Z,9.88
2023-04-20T06:52:38.596Z,8.43
2023-04-20T06:53:14.002Z,20.13
2023-04-20T06:53:48.074Z,10.48
2023-04-20T06:54:21.752Z,9.25
2023-04-20T06:54:57.242Z,9.57
2023-04-20T06:55:31.919Z,10.57
2023-04-20T06:56:19.866Z,12.55
2023-04-20T06:56:55.055Z,32.78
2023-04-20T06:57:28.971Z,25.65
2023-04-20T06:58:04.612Z,12.82
2023-04-20T06:58:39.417Z,9.05
2023-04-20T06:59:17.061Z,8.57
2023-04-20T06:59:51.540Z,12.40
2023-04-20T07:00:28.975Z,9.63
2023-04-20T07:01:03.124Z,12.00
2023-04-20T07:01:38.448Z,7.00
2023-04-20T07:02:12.716Z,10.20
2023-04-20T07:02:47.418Z,7.72
2023-04-20T07:03:25.006Z,8.52
2023-04-20T07:03:59.582Z,10.23
2023-04-20T07:04:33.932Z,9.75
2023-04-20T07:05:09.610Z,8.65
2023-04-20T07:05:43.360Z,9.73
2023-04-20T07:06:17.935Z,9.10
2023-04-20T07:06:54.015Z,7.55
2023-04-20T07:07:29.572Z,9.43
2023-04-20T07:08:03.638Z,7.93
2023-04-20T07:08:37.283Z,10.57
2023-04-20T07:09:12.229Z,9.93
2023-04-20T07:09:45.881Z,6.68
2023-04-20T07:10:20.844Z,9.50
2023-04-20T07:10:55.310Z,8.38
2023-04-20T07:11:30.292Z,9.55
2023-04-20T07:12:04.219Z,10.38
2023-04-20T07:12:40.868Z,10.27
2023-04-20T07:13:16.864Z,8.68
2023-04-20T07:13:53.050Z,9.50
2023-04-20T07:14:27.033Z,7.53
2023-04-20T07:15:02.791Z,9.68
2023-04-20T07:15:38.150Z,6.70
2023-04-20T07:16:12.402Z,8.68
2023-04-20T07:16:48.371Z,19.40
2023-04-20T07:17:22.538Z,12.25
2023-04-20T07:17:56.954Z,8.40
2023-04-20T07:18:33.981Z,8.90
2023-04-20T07:19:10.281Z,5.30
2023-04-20T07:19:45.488Z,6.65
2023-04-20T07:20:21.012Z,12.82
2023-04-20T07:20:54.545Z,8.68
2023-04-20T07:21:28.242Z,9.35
2023-04-20T07:22:03.934Z,13.18
2023-04-20T07:22:37.180Z,6.00
2023-04-20T07:23:12.006Z,6.50
2023-04-20T07:23:46.705Z,7.30
2023-04-20T07:24:19.754Z,6.97
2023-04-20T07:24:54.235Z,10.73
2023-04-20T07:25:28.844Z,8.70
2023-04-20T07:26:05.220Z,7.57
2023-04-20T07:26:39.956Z,9.50
2023-04-20T07:27:13.482Z,8.32
2023-04-20T07:27:47.522Z,7.15
2023-04-20T07:28:22.340Z,5.55
2023-04-20T07:28:58.361Z,8.15
2023-04-20T07:29:33.865Z,6.50
2023-04-20T07:30:10.744Z,6.70
2023-04-20T07:30:45.907Z,11.45
2023-04-20T07:31:20.045Z,10.02
2023-04-20T07:31:54.065Z,14.07
2023-04-20T07:32:29.606Z,8.23
2023-04-20T07:33:03.812Z,10.20
2023-04-20T07:33:39.465Z,9.43
2023-04-20T07:34:13.472Z,7.10
2023-04-20T07:34:47.491Z,8.65
2023-04-20T07:35:22.316Z,10.70
2023-04-20T07:35:56.199Z,7.68
2023-04-20T07:36:30.718Z,10.93
2023-04-20T07:37:05.354Z,8.02
2023-04-20T07:37:40.605Z,7.25
2023-04-20T07:38:16.822Z,10.65
2023-04-20T07:38:51.983Z,6.15
2023-04-20T07:39:28.893Z,10.40
2023-04-20T07:40:03.308Z,19.10
2023-04-20T07:40:38.625Z,5.82
2023-04-20T07:41:13.012Z,6.85
2023-04-20T07:41:46.053Z,8.68
2023-04-20T07:42:22.120Z,5.45